createdAt,value
2023-01-25T00:02:25.930Z,2.60
2023-01-25T00:05:11.643Z,2.50
2023-01-25T00:07:56.899Z,2.60
2023-01-25T00:10:42.437Z,2.70
2023-01-25T00:13:27.732Z,2.60
2023-01-25T00:16:13.559Z,2.70
2023-01-25T00:18:59.472Z,2.70
2023-01-25T00:21:45.130Z,2.80
2023-01-25T00:24:30.540Z,2.80
2023-01-25T00:27:16.409Z,2.70
2023-01-25T00:30:02.292Z,2.70
2023-01-25T00:33:27.177Z,2.70
2023-01-25T00:36:34.702Z,2.70
2023-01-25T00:39:22.635Z,2.80
2023-01-25T00:42:11.769Z,2.80
2023-01-25T00:44:56.915Z,2.80
2023-01-25T00:47:43.256Z,2.90
2023-01-25T00:50:28.594Z,2.80
2023-01-25T00:53:18.761Z,2.80
2023-01-25T00:56:04.639Z,2.80
2023-01-25T00:58:50.499Z,2.90
2023-01-25T01:01:36.195Z,2.90
2023-01-25T01:04:25.740Z,3.00
2023-01-25T01:07:13.902Z,3.00
2023-01-25T01:10:00.290Z,3.00
2023-01-25T01:12:47.857Z,3.00
2023-01-25T01:15:37.568Z,2.90
2023-01-25T01:18:23.793Z,2.90
2023-01-25T01:21:10.053Z,3.00
2023-01-25T01:23:55.644Z,3.00
2023-01-25T01:26:41.112Z,2.90
2023-01-25T01:29:26.667Z,3.00
2023-01-25T01:32:14.254Z,2.90
2023-01-25T01:34:59.903Z,2.90
2023-01-25T01:37:45.777Z,2.90
2023-01-25T01:40:31.319Z,2.90
2023-01-25T01:43:22.982Z,2.80
2023-01-25T01:46:15.678Z,2.80
2023-01-25T01:49:10.616Z,2.80
2023-01-25T01:52:07.670Z,2.90
2023-01-25T01:54:59.735Z,2.90
2023-01-25T01:57:50.159Z,2.80
2023-01-25T02:00:39.740Z,2.80
2023-01-25T02:03:26.557Z,2.70
2023-01-25T02:06:22.132Z,2.70
2023-01-25T02:09:07.554Z,2.70
2023-01-25T02:11:53.789Z,2.70
2023-01-25T02:14:48.574Z,2.80
2023-01-25T02:17:41.474Z,2.80
2023-01-25T02:20:36.557Z,2.90
2023-01-25T02:23:34.100Z,2.90
2023-01-25T02:26:20.252Z,2.90
2023-01-25T02:29:10.221Z,2.90
2023-01-25T02:32:08.104Z,2.90
2023-01-25T02:34:53.415Z,2.90
2023-01-25T02:37:39.149Z,2.80
2023-01-25T02:40:24.571Z,2.80
2023-01-25T02:43:12.775Z,2.90
2023-01-25T02:46:10.936Z,2.90
2023-01-25T02:49:00.970Z,2.80
2023-01-25T02:51:50.480Z,2.90
2023-01-25T02:54:36.086Z,3.00
2023-01-25T02:57:23.173Z,3.00
2023-01-25T03:00:09.841Z,2.90
2023-01-25T03:02:55.082Z,2.90
2023-01-25T03:05:40.682Z,2.90
2023-01-25T03:08:26.110Z,2.90
2023-01-25T03:11:13.805Z,2.90
2023-01-25T03:14:04.342Z,2.90
2023-01-25T03:16:49.661Z,2.90
2023-01-25T03:19:35.176Z,2.80
2023-01-25T03:22:23.100Z,2.80
2023-01-25T03:25:09.510Z,2.90
2023-01-25T03:27:56.122Z,2.90
2023-01-25T03:30:41.646Z,2.90
2023-01-25T03:33:27.199Z,3.00
2023-01-25T03:36:13.062Z,3.00
2023-01-25T03:39:03.521Z,3.00
2023-01-25T03:41:48.929Z,3.10
2023-01-25T03:44:34.530Z,3.10
2023-01-25T03:47:22.656Z,3.10
2023-01-25T03:50:09.047Z,3.10
2023-01-25T03:53:01.316Z,3.20
2023-01-25T03:55:50.408Z,3.20
2023-01-25T03:58:37.177Z,3.20
2023-01-25T04:01:25.199Z,3.20
2023-01-25T04:04:11.145Z,3.20
2023-01-25T04:06:56.984Z,3.20
2023-01-25T04:09:42.633Z,3.20
2023-01-25T04:12:28.333Z,3.20
2023-01-25T04:15:13.573Z,3.30
2023-01-25T04:17:59.260Z,3.30
2023-01-25T04:20:45.525Z,3.30
2023-01-25T04:23:32.969Z,3.30
2023-01-25T04:26:18.103Z,3.30
2023-01-25T04:29:03.677Z,3.20
2023-01-25T04:31:52.406Z,3.20
2023-01-25T04:34:38.586Z,3.20
2023-01-25T04:37:23.752Z,3.30
2023-01-25T04:40:12.655Z,3.30
2023-01-25T04:42:57.984Z,3.30
2023-01-25T04:45:46.384Z,3.20
2023-01-25T04:48:35.425Z,3.20
2023-01-25T04:51:20.859Z,3.20
2023-01-25T04:54:08.370Z,3.20
2023-01-25T04:56:54.403Z,3.10
2023-01-25T04:59:39.656Z,3.10
2023-01-25T05:02:26.346Z,3.10
2023-01-25T05:05:14.752Z,3.10
2023-01-25T05:08:00.704Z,3.10
2023-01-25T05:10:46.768Z,3.20
2023-01-25T05:13:32.393Z,3.00
2023-01-25T05:16:20.601Z,3.10
2023-01-25T05:19:06.343Z,3.10
2023-01-25T05:22:01.312Z,3.00
2023-01-25T05:24:47.388Z,3.10
2023-01-25T05:27:34.838Z,3.10
2023-01-25T05:30:23.131Z,3.20
2023-01-25T05:33:08.702Z,3.20
2023-01-25T05:35:56.167Z,3.20
2023-01-25T05:38:41.617Z,3.20
2023-01-25T05:41:26.939Z,3.20
2023-01-25T05:44:13.119Z,3.20
2023-01-25T05:47:00.530Z,3.10
2023-01-25T05:49:48.745Z,3.20
2023-01-25T05:52:34.105Z,3.10
2023-01-25T05:55:19.665Z,3.20
2023-01-25T05:58:05.453Z,3.20
2023-01-25T06:00:50.764Z,3.30
2023-01-25T06:03:36.605Z,3.30
2023-01-25T06:06:22.841Z,3.20
2023-01-25T06:09:10.147Z,3.20
2023-01-25T06:11:55.715Z,3.20
2023-01-25T06:14:41.359Z,3.20
2023-01-25T06:17:29.939Z,3.10
2023-01-25T06:20:16.125Z,3.20
2023-01-25T06:23:01.664Z,3.20
2023-01-25T06:25:46.855Z,3.10
2023-01-25T06:28:37.066Z,3.10
2023-01-25T06:31:24.909Z,3.00
2023-01-25T06:34:10.455Z,3.00
2023-01-25T06:36:55.915Z,3.00
2023-01-25T06:39:41.512Z,3.10
2023-01-25T06:42:26.827Z,3.00
2023-01-25T06:45:12.597Z,3.10
2023-01-25T06:47:57.831Z,3.00
2023-01-25T06:50:45.827Z,3.10
2023-01-25T06:53:33.621Z,3.10
2023-01-25T06:56:23.287Z,3.10
2023-01-25T06:59:11.117Z,3.10
2023-01-25T07:01:57.095Z,3.10
2023-01-25T07:04:43.188Z,3.00
2023-01-25T07:07:31.724Z,2.90
2023-01-25T07:10:17.807Z,2.90
2023-01-25T07:13:06.652Z,2.80
2023-01-25T07:15:57.449Z,2.80
2023-01-25T07:18:43.751Z,2.90
2023-01-25T07:21:29.153Z,2.90
2023-01-25T07:24:19.848Z,2.90
2023-01-25T07:27:05.580Z,2.90
2023-01-25T07:29:53.819Z,3.00
2023-01-25T07:32:41.710Z,3.00
2023-01-25T07:35:26.989Z,2.90
2023-01-25T07:38:13.904Z,2.90
2023-01-25T07:41:00.824Z,2.90
2023-01-25T07:43:47.878Z,2.90
2023-01-25T07:46:34.184Z,2.90
2023-01-25T07:49:19.659Z,3.00
2023-01-25T07:52:07.988Z,3.00
2023-01-25T07:54:55.679Z,3.00
2023-01-25T07:57:43.073Z,3.10
2023-01-25T08:00:28.643Z,3.00
2023-01-25T08:03:14.700Z,3.00
2023-01-25T08:06:05.262Z,3.00
2023-01-25T08:08:55.173Z,2.90
2023-01-25T08:11:42.052Z,2.90
2023-01-25T08:14:30.209Z,2.70
2023-01-25T08:17:15.629Z,2.70
2023-01-25T08:20:04.581Z,2.70
2023-01-25T08:22:52.599Z,2.80
2023-01-25T08:25:40.504Z,2.60
2023-01-25T08:28:29.133Z,2.70
2023-01-25T08:31:23.383Z,2.90
2023-01-25T08:34:10.838Z,2.90
2023-01-25T08:36:56.217Z,2.90
2023-01-25T08:39:41.765Z,3.00
2023-01-25T08:42:28.009Z,2.90
2023-01-25T08:45:15.434Z,3.00
2023-01-25T08:48:00.747Z,2.90
2023-01-25T08:50:47.454Z,3.00
2023-01-25T08:53:33.226Z,3.00
2023-01-25T08:56:19.333Z,2.90
2023-01-25T08:59:05.957Z,2.90
2023-01-25T09:01:56.132Z,2.90
2023-01-25T09:04:41.924Z,3.00
2023-01-25T09:07:27.599Z,3.10
2023-01-25T09:10:15.534Z,3.10
2023-01-25T09:13:01.529Z,3.10
2023-01-25T09:15:46.899Z,3.20
2023-01-25T09:18:37.114Z,3.20
2023-01-25T09:21:23.327Z,3.30
2023-01-25T09:24:11.577Z,3.20
2023-01-25T09:27:00.065Z,3.10
2023-01-25T09:30:00.017Z,3.00
2023-01-25T09:32:49.928Z,3.00
2023-01-25T09:35:37.904Z,2.90
2023-01-25T09:38:26.323Z,2.70
2023-01-25T09:41:30.341Z,2.60
2023-01-25T09:44:41.280Z,2.70
2023-01-25T09:47:40.972Z,2.60
2023-01-25T09:50:47.140Z,2.80
2023-01-25T09:53:40.153Z,2.70
2023-01-25T09:56:35.906Z,2.60
2023-01-25T09:59:26.452Z,2.70
2023-01-25T10:02:30.579Z,2.70
2023-01-25T10:05:23.589Z,2.80
2023-01-25T10:08:46.372Z,2.80
2023-01-25T10:11:33.538Z,2.90
2023-01-25T10:14:21.629Z,3.10
2023-01-25T10:17:34.201Z,3.00
2023-01-25T10:20:40.790Z,3.00
2023-01-25T10:23:26.004Z,3.00
2023-01-25T10:26:23.356Z,2.90
2023-01-25T10:29:13.771Z,2.90
2023-01-25T10:32:20.370Z,2.80
2023-01-25T10:35:34.308Z,2.70
2023-01-25T10:38:29.746Z,3.00
2023-01-25T10:41:17.333Z,3.10
2023-01-25T10:44:21.668Z,3.00
2023-01-25T10:47:18.301Z,3.20
2023-01-25T10:50:03.953Z,3.40
2023-01-25T10:53:00.234Z,3.40
2023-01-25T10:56:11.163Z,3.10
2023-01-25T10:59:21.467Z,3.20
2023-01-25T11:02:40.642Z,3.30
2023-01-25T11:05:35.145Z,3.30
2023-01-25T11:08:36.498Z,3.40
2023-01-25T11:11:42.383Z,3.30
2023-01-25T11:14:30.791Z,3.10
2023-01-25T11:17:31.786Z,3.20
2023-01-25T11:20:20.925Z,3.10
2023-01-25T11:23:24.769Z,3.20
2023-01-25T11:26:19.204Z,3.30
2023-01-25T11:29:11.557Z,3.10
2023-01-25T11:31:58.920Z,3.20
2023-01-25T11:34:46.610Z,3.30
2023-01-25T11:37:43.294Z,3.30
2023-01-25T11:40:39.288Z,3.30
2023-01-25T11:43:34.112Z,2.90
2023-01-25T11:46:34.704Z,2.80
2023-01-25T11:49:52.391Z,2.90
2023-01-25T11:53:00.561Z,2.90
2023-01-25T11:55:55.654Z,3.10
2023-01-25T11:59:01.343Z,2.80
2023-01-25T12:02:17.981Z,2.70
2023-01-25T12:05:28.286Z,2.60
2023-01-25T12:08:33.014Z,2.70
2023-01-25T12:11:46.254Z,2.60
2023-01-25T12:14:58.439Z,2.50
2023-01-25T12:18:05.917Z,2.80
2023-01-25T12:21:10.484Z,2.60
2023-01-25T12:24:16.851Z,2.50
2023-01-25T12:27:27.107Z,2.50
2023-01-25T12:30:32.019Z,2.50
2023-01-25T12:33:26.879Z,2.40
2023-01-25T12:36:19.793Z,2.30
2023-01-25T12:39:16.778Z,2.40
2023-01-25T12:42:28.827Z,2.60
2023-01-25T12:45:32.212Z,2.70
2023-01-25T12:48:28.141Z,2.60
2023-01-25T12:51:15.165Z,2.70
2023-01-25T12:54:02.811Z,2.70
2023-01-25T12:57:07.363Z,2.70
2023-01-25T13:00:19.681Z,2.80
2023-01-25T13:03:23.232Z,2.80
2023-01-25T13:06:17.466Z,2.80
2023-01-25T13:09:37.100Z,2.70
2023-01-25T13:12:24.587Z,2.70
2023-01-25T13:15:36.288Z,2.50
2023-01-25T13:18:24.965Z,2.50
2023-01-25T13:21:33.464Z,2.50
2023-01-25T13:24:27.164Z,2.60
2023-01-25T13:27:35.787Z,2.70
2023-01-25T13:30:35.794Z,2.70
2023-01-25T13:33:34.357Z,2.70
2023-01-25T13:36:41.134Z,2.60
2023-01-25T13:39:31.706Z,2.70
2023-01-25T13:42:31.971Z,2.70
2023-01-25T13:45:20.418Z,2.50
2023-01-25T13:48:08.971Z,2.70
2023-01-25T13:50:57.208Z,2.80
2023-01-25T13:53:43.437Z,2.70
2023-01-25T13:56:37.581Z,2.60
2023-01-25T13:59:30.029Z,2.50
2023-01-25T14:02:20.919Z,2.50
2023-01-25T14:05:21.720Z,2.40
2023-01-25T14:08:10.606Z,2.50
2023-01-25T14:10:57.000Z,2.60
2023-01-25T14:13:58.565Z,2.60
2023-01-25T14:16:47.436Z,2.70
2023-01-25T14:19:37.155Z,2.60
2023-01-25T14:22:28.002Z,2.60
2023-01-25T14:25:25.508Z,2.70
2023-01-25T14:28:16.037Z,2.60
2023-01-25T14:31:20.410Z,2.40
2023-01-25T14:34:19.977Z,2.30
2023-01-25T14:37:26.820Z,2.30
2023-01-25T14:40:12.822Z,2.20
2023-01-25T14:42:58.765Z,2.00
2023-01-25T14:45:45.152Z,1.80
2023-01-25T14:48:37.235Z,1.80
2023-01-25T14:51:30.258Z,1.70
2023-01-25T14:54:26.758Z,1.90
2023-01-25T14:57:33.860Z,2.00
2023-01-25T15:00:22.286Z,2.10
2023-01-25T15:03:18.779Z,2.10
2023-01-25T15:06:05.514Z,1.90
2023-01-25T15:08:53.062Z,2.10
2023-01-25T15:11:49.806Z,2.10
2023-01-25T15:14:53.702Z,2.20
2023-01-25T15:17:40.447Z,2.00
2023-01-25T15:20:36.842Z,1.90
2023-01-25T15:23:27.278Z,1.80
2023-01-25T15:26:35.635Z,1.80
2023-01-25T15:29:24.663Z,1.80
2023-01-25T15:32:20.888Z,1.80
2023-01-25T15:35:16.347Z,1.90
2023-01-25T15:38:01.572Z,2.00
2023-01-25T15:40:49.412Z,2.00
2023-01-25T15:43:36.698Z,2.00
2023-01-25T15:46:27.780Z,2.00
2023-01-25T15:49:19.000Z,2.10
2023-01-25T15:52:07.156Z,2.20
2023-01-25T15:55:01.543Z,2.00
2023-01-25T15:57:50.836Z,2.00
2023-01-25T16:00:36.595Z,1.90
2023-01-25T16:03:22.324Z,1.90
2023-01-25T16:06:22.991Z,1.90
2023-01-25T16:09:16.779Z,1.90
2023-01-25T16:12:02.900Z,2.00
2023-01-25T16:14:49.026Z,1.90
2023-01-25T16:17:35.014Z,1.90
2023-01-25T16:20:21.838Z,1.80
2023-01-25T16:23:08.495Z,1.80
2023-01-25T16:25:55.958Z,1.80
2023-01-25T16:28:41.134Z,1.80
2023-01-25T16:31:32.808Z,1.90
2023-01-25T16:34:20.399Z,1.90
2023-01-25T16:37:05.929Z,1.80
2023-01-25T16:39:54.064Z,1.80
2023-01-25T16:42:39.439Z,1.70
2023-01-25T16:45:25.225Z,1.70
2023-01-25T16:48:15.810Z,1.70
2023-01-25T16:51:02.370Z,1.90
2023-01-25T16:53:49.635Z,1.80
2023-01-25T16:56:37.691Z,1.90
2023-01-25T16:59:24.526Z,1.80
2023-01-25T17:02:12.863Z,1.80
2023-01-25T17:04:58.427Z,1.80
2023-01-25T17:07:50.205Z,1.70
2023-01-25T17:10:37.386Z,1.70
2023-01-25T17:13:25.986Z,1.60
2023-01-25T17:16:11.230Z,1.60
2023-01-25T17:19:02.527Z,1.80
2023-01-25T17:21:51.340Z,1.90
2023-01-25T17:24:36.603Z,1.90
2023-01-25T17:27:24.724Z,1.90
2023-01-25T17:30:11.045Z,2.00
2023-01-25T17:32:59.153Z,2.00
2023-01-25T17:35:45.630Z,1.80
2023-01-25T17:38:33.578Z,1.80
2023-01-25T17:41:19.640Z,1.70
2023-01-25T17:44:07.879Z,1.70
2023-01-25T17:46:56.057Z,1.60
2023-01-25T17:49:41.336Z,1.70
2023-01-25T17:52:26.806Z,1.80
2023-01-25T17:55:12.216Z,1.60
2023-01-25T17:58:01.419Z,1.60
2023-01-25T18:00:47.034Z,1.60
2023-01-25T18:03:34.845Z,1.60
2023-01-25T18:06:25.091Z,1.50
2023-01-25T18:09:10.396Z,1.30
2023-01-25T18:11:58.300Z,1.40
2023-01-25T18:14:46.652Z,1.40
2023-01-25T18:17:38.151Z,1.40
2023-01-25T18:20:25.657Z,1.50
2023-01-25T18:23:15.613Z,1.60
2023-01-25T18:26:05.366Z,1.70
2023-01-25T18:28:53.241Z,1.80
2023-01-25T18:31:39.331Z,1.80
2023-01-25T18:34:27.175Z,1.80
2023-01-25T18:37:19.252Z,1.90
2023-01-25T18:40:05.931Z,2.00
2023-01-25T18:42:54.500Z,2.00
2023-01-25T18:45:42.983Z,2.00
2023-01-25T18:48:32.017Z,2.10
2023-01-25T18:51:17.956Z,2.00
2023-01-25T18:54:03.850Z,1.90
2023-01-25T18:56:49.201Z,1.90
2023-01-25T18:59:34.697Z,2.00
2023-01-25T19:02:23.641Z,1.90
2023-01-25T19:05:12.403Z,1.90
2023-01-25T19:07:57.798Z,1.70
2023-01-25T19:10:45.265Z,1.80
2023-01-25T19:13:33.839Z,1.80
2023-01-25T19:16:24.480Z,1.70
2023-01-25T19:19:10.738Z,1.70
2023-01-25T19:21:58.627Z,1.60
2023-01-25T19:24:43.906Z,1.60
2023-01-25T19:27:29.517Z,1.60
2023-01-25T19:30:17.802Z,1.60
2023-01-25T19:33:03.584Z,1.50
2023-01-25T19:35:51.073Z,1.50
2023-01-25T19:38:40.377Z,1.40
2023-01-25T19:41:28.827Z,1.40
2023-01-25T19:44:14.954Z,1.40
2023-01-25T19:47:00.449Z,1.40
2023-01-25T19:49:45.974Z,1.50
2023-01-25T19:52:33.772Z,1.40
2023-01-25T19:55:21.633Z,1.40
2023-01-25T19:58:09.926Z,1.50
2023-01-25T20:01:04.241Z,1.50
2023-01-25T20:03:52.738Z,1.50
2023-01-25T20:06:37.971Z,1.60
2023-01-25T20:09:28.175Z,1.70
2023-01-25T20:12:14.010Z,1.70
2023-01-25T20:14:59.382Z,1.70
2023-01-25T20:17:49.583Z,1.60
2023-01-25T20:20:35.378Z,1.60
2023-01-25T20:23:23.261Z,1.40
2023-01-25T20:26:17.747Z,1.40
2023-01-25T20:29:03.521Z,1.50
2023-01-25T20:31:51.632Z,1.60
2023-01-25T20:34:38.290Z,1.60
2023-01-25T20:37:24.112Z,1.70
2023-01-25T20:40:12.639Z,1.70
2023-01-25T20:43:00.445Z,1.80
2023-01-25T20:45:55.317Z,1.70
2023-01-25T20:48:40.877Z,1.80
2023-01-25T20:51:28.397Z,1.70
2023-01-25T20:54:15.087Z,1.60
2023-01-25T20:57:00.692Z,1.60
2023-01-25T20:59:48.443Z,1.50
2023-01-25T21:02:33.868Z,1.40
2023-01-25T21:05:21.741Z,1.30
2023-01-25T21:08:09.405Z,1.40
2023-01-25T21:10:59.128Z,1.40
2023-01-25T21:13:44.840Z,1.40
2023-01-25T21:16:30.370Z,1.50
2023-01-25T21:19:15.964Z,1.50
2023-01-25T21:22:04.670Z,1.50
2023-01-25T21:24:52.610Z,1.40
2023-01-25T21:27:40.346Z,1.30
2023-01-25T21:30:26.326Z,1.50
2023-01-25T21:33:12.192Z,1.60
2023-01-25T21:36:01.928Z,1.60
2023-01-25T21:38:51.458Z,1.60
2023-01-25T21:41:37.157Z,1.60
2023-01-25T21:44:40.785Z,1.50
2023-01-25T21:47:30.876Z,1.30
2023-01-25T21:50:35.168Z,1.40
2023-01-25T21:53:25.834Z,1.20
2023-01-25T21:56:10.935Z,1.20
2023-01-25T21:58:56.487Z,1.40
2023-01-25T22:01:45.055Z,1.50
2023-01-25T22:04:30.420Z,1.30
2023-01-25T22:07:15.954Z,1.20
2023-01-25T22:10:04.078Z,1.10
2023-01-25T22:12:51.660Z,1.10
2023-01-25T22:15:37.129Z,1.10
2023-01-25T22:18:25.108Z,1.30
2023-01-25T22:21:19.174Z,1.30
2023-01-25T22:24:06.259Z,1.30
2023-01-25T22:27:03.707Z,1.30
2023-01-25T22:29:49.149Z,1.20
2023-01-25T22:32:34.893Z,1.20
2023-01-25T22:35:20.598Z,1.20
2023-01-25T22:38:05.935Z,1.20
2023-01-25T22:40:51.726Z,1.20
2023-01-25T22:43:37.583Z,1.30
2023-01-25T22:46:25.845Z,1.30
2023-01-25T22:49:11.755Z,1.30
2023-01-25T22:52:00.077Z,1.40
2023-01-25T22:54:50.217Z,1.30
2023-01-25T22:57:37.838Z,1.50
2023-01-25T23:00:25.728Z,1.40
2023-01-25T23:03:11.364Z,1.30
2023-01-25T23:06:01.240Z,1.40
2023-01-25T23:08:47.339Z,1.30
2023-01-25T23:11:37.124Z,1.40
2023-01-25T23:14:43.617Z,1.40
2023-01-25T23:17:50.157Z,1.50
2023-01-25T23:20:36.208Z,1.50
2023-01-25T23:23:21.604Z,1.50
2023-01-25T23:26:07.384Z,1.50
2023-01-25T23:28:57.009Z,1.60
2023-01-25T23:31:43.973Z,1.60
2023-01-25T23:34:34.729Z,1.70
2023-01-25T23:37:23.225Z,1.60
2023-01-25T23:40:09.643Z,1.80
2023-01-25T23:42:57.695Z,1.80
2023-01-25T23:45:44.549Z,1.80
2023-01-25T23:48:29.880Z,1.80
2023-01-25T23:51:16.509Z,1.80
2023-01-25T23:54:01.760Z,1.90
2023-01-25T23:56:49.332Z,1.90
2023-01-25T23:59:37.527Z,2.00
